Terminal Aerodrome Forecast
Issued by NWS Cleveland, OH

Home | Current Version | Previous Version | Graphics & Text | Print | Product List | Glossary On
Versions: 1 2 3 4 5 6 7 8 9 10 11 12 13 14 15 16 17
000
FTUS41 KCLE 240520
TAFCAK
TAF
KCAK 240520Z 2406/2506 16003KT P6SM SCT250
     FM241600 20012KT P6SM SCT050
     FM242000 20012KT P6SM SCT050 BKN150
     FM250000 20010KT P6SM VCTS OVC050CB=

USA.gov is the U.S. government's official web portal to all federal, state and local government web resources and services.